createdAt,value
2023-03-03T00:04:55.536Z,-0.82
2023-03-03T00:09:57.980Z,-0.90
2023-03-03T00:15:18.003Z,-0.94
2023-03-03T00:20:38.425Z,-0.94
2023-03-03T00:25:44.663Z,-0.94
2023-03-03T00:30:46.406Z,-0.96
2023-03-03T00:35:48.226Z,-1.14
2023-03-03T00:40:52.370Z,-1.29
2023-03-03T00:45:56.591Z,-1.39
2023-03-03T00:51:30.093Z,-1.44
2023-03-03T00:56:31.981Z,-1.41
2023-03-03T01:01:33.733Z,-1.39
2023-03-03T01:06:35.763Z,-1.34
2023-03-03T01:11:37.508Z,-1.30
2023-03-03T01:16:39.205Z,-1.29
2023-03-03T01:21:40.978Z,-1.29
2023-03-03T01:26:42.751Z,-1.25
2023-03-03T01:31:44.593Z,-1.16
2023-03-03T01:36:46.288Z,-1.07
2023-03-03T01:41:48.525Z,-1.09
2023-03-03T01:47:12.875Z,-1.23
2023-03-03T01:52:36.463Z,-1.37
2023-03-03T01:57:43.978Z,-1.45
2023-03-03T02:02:46.944Z,-1.52
2023-03-03T02:07:49.170Z,-1.61
2023-03-03T02:12:53.990Z,-1.68
2023-03-03T02:18:00.685Z,-1.69
2023-03-03T02:23:18.051Z,-1.72
2023-03-03T02:28:20.736Z,-1.79
2023-03-03T02:33:24.458Z,-1.85
2023-03-03T02:38:29.158Z,-1.94
2023-03-03T02:43:41.648Z,-2.08
2023-03-03T02:48:43.670Z,-2.15
2023-03-03T02:53:45.765Z,-2.15
2023-03-03T02:58:47.540Z,-2.13
2023-03-03T03:03:49.640Z,-2.09
2023-03-03T03:08:54.167Z,-2.09
2023-03-03T03:13:56.212Z,-2.16
2023-03-03T03:18:59.824Z,-2.13
2023-03-03T03:24:02.194Z,-2.16
2023-03-03T03:29:05.151Z,-2.21
2023-03-03T03:34:07.760Z,-2.28
2023-03-03T03:39:09.597Z,-2.26
2023-03-03T03:44:14.061Z,-2.24
2023-03-03T03:49:16.005Z,-2.19
2023-03-03T03:54:17.807Z,-2.17
2023-03-03T03:59:20.839Z,-2.21
2023-03-03T04:04:22.711Z,-2.20
2023-03-03T04:09:25.260Z,-2.28
2023-03-03T04:14:27.395Z,-2.38
2023-03-03T04:19:29.932Z,-2.38
2023-03-03T04:24:31.764Z,-2.28
2023-03-03T04:29:33.795Z,-2.17
2023-03-03T04:34:36.324Z,-2.15
2023-03-03T04:39:39.067Z,-2.22
2023-03-03T04:44:40.873Z,-2.34
2023-03-03T04:49:42.965Z,-2.40
2023-03-03T04:54:44.924Z,-2.40
2023-03-03T04:59:46.818Z,-2.36
2023-03-03T05:06:31.666Z,-2.44
2023-03-03T05:11:33.299Z,-2.62
2023-03-03T05:16:34.953Z,-2.66
2023-03-03T05:21:37.837Z,-2.58
2023-03-03T05:26:40.838Z,-2.61
2023-03-03T05:31:45.495Z,-2.50
2023-03-03T05:36:47.458Z,-2.28
2023-03-03T05:41:49.073Z,-2.20
2023-03-03T05:46:50.802Z,-2.29
2023-03-03T05:51:52.453Z,-2.34
2023-03-03T05:56:54.165Z,-2.55
2023-03-03T06:01:55.926Z,-2.56
2023-03-03T06:06:57.941Z,-2.43
2023-03-03T06:11:59.685Z,-2.40
2023-03-03T06:17:01.439Z,-2.37
2023-03-03T06:22:03.613Z,-2.36
2023-03-03T06:27:07.849Z,-2.29
2023-03-03T06:32:09.745Z,-2.21
2023-03-03T06:37:11.605Z,-2.34
2023-03-03T06:42:13.484Z,-2.47
2023-03-03T06:47:15.197Z,-2.51
2023-03-03T06:52:22.019Z,-2.71
2023-03-03T06:57:28.219Z,-2.83
2023-03-03T07:02:29.898Z,-2.63
2023-03-03T07:07:31.809Z,-2.48
2023-03-03T07:12:35.538Z,-2.51
2023-03-03T07:17:41.885Z,-2.40
2023-03-03T07:22:43.641Z,-2.20
2023-03-03T07:27:45.327Z,-2.00
2023-03-03T07:32:47.485Z,-1.93
2023-03-03T07:37:49.351Z,-2.09
2023-03-03T07:42:51.828Z,-2.04
2023-03-03T07:48:19.261Z,-1.77
2023-03-03T07:53:34.959Z,-1.41
2023-03-03T07:58:42.064Z,-1.50
2023-03-03T08:03:46.824Z,-1.45
2023-03-03T08:09:21.618Z,-1.46
2023-03-03T08:14:41.130Z,-1.44
2023-03-03T08:19:42.832Z,-1.33
2023-03-03T08:24:44.642Z,-1.26
2023-03-03T08:29:48.439Z,-1.10
2023-03-03T08:34:50.328Z,-1.05
2023-03-03T08:39:52.137Z,-0.99
2023-03-03T08:44:53.726Z,-0.87
2023-03-03T08:49:55.421Z,-0.81
2023-03-03T08:54:57.274Z,-0.63
2023-03-03T08:59:59.018Z,-0.42
2023-03-03T09:05:01.191Z,-0.27
2023-03-03T09:10:04.811Z,-0.15
2023-03-03T09:15:19.041Z,-0.40
2023-03-03T09:20:44.159Z,-0.41
2023-03-03T09:25:47.208Z,-0.39
2023-03-03T09:30:51.483Z,-0.23
2023-03-03T09:36:03.388Z,-0.04
2023-03-03T09:41:05.080Z,0.06
2023-03-03T09:46:25.848Z,-0.03
2023-03-03T09:51:49.335Z,-0.14
2023-03-03T09:57:04.171Z,-0.11
2023-03-03T10:02:33.723Z,-0.12
2023-03-03T10:07:50.881Z,-0.01
2023-03-03T10:13:20.025Z,0.11
2023-03-03T10:18:42.593Z,0.14
2023-03-03T10:23:59.074Z,0.20
2023-03-03T10:29:22.622Z,0.16
2023-03-03T10:34:43.456Z,0.14
2023-03-03T10:39:48.169Z,0.19
2023-03-03T10:45:08.088Z,0.25
2023-03-03T10:50:35.261Z,0.41
2023-03-03T10:56:11.126Z,0.37
2023-03-03T11:01:34.716Z,0.30
2023-03-03T11:07:07.132Z,0.22
2023-03-03T11:12:15.185Z,0.20
2023-03-03T11:17:30.467Z,0.20
2023-03-03T11:23:11.024Z,0.24
2023-03-03T11:28:19.437Z,0.16
2023-03-03T11:33:36.008Z,0.12
2023-03-03T11:39:03.667Z,0.18
2023-03-03T11:44:19.226Z,0.32
2023-03-03T11:49:38.577Z,0.44
2023-03-03T11:54:54.860Z,0.51
2023-03-03T12:00:20.542Z,0.69
2023-03-03T12:05:31.289Z,0.77
2023-03-03T12:10:45.285Z,0.77
2023-03-03T12:15:49.672Z,0.64
2023-03-03T12:21:16.356Z,0.69
2023-03-03T12:26:32.599Z,0.72
2023-03-03T12:32:42.484Z,0.93
2023-03-03T12:38:28.928Z,0.99
2023-03-03T12:43:44.183Z,0.95
2023-03-03T12:48:47.623Z,0.84
2023-03-03T12:54:14.567Z,0.96
2023-03-03T12:59:22.037Z,1.09
2023-03-03T13:04:35.119Z,1.21
2023-03-03T13:09:58.115Z,1.34
2023-03-03T13:15:18.502Z,1.18
2023-03-03T13:20:45.197Z,1.04
2023-03-03T13:26:00.068Z,1.04
2023-03-03T13:31:32.225Z,1.24
2023-03-03T13:36:59.163Z,1.13
2023-03-03T13:42:06.685Z,1.06
2023-03-03T13:47:14.699Z,1.20
2023-03-03T13:52:22.552Z,1.26
2023-03-03T13:57:45.080Z,1.27
2023-03-03T14:02:58.825Z,1.28
2023-03-03T14:08:08.326Z,1.17
2023-03-03T14:13:13.675Z,1.21
2023-03-03T14:18:39.220Z,1.15
2023-03-03T14:23:48.223Z,1.04
2023-03-03T14:28:53.046Z,0.99
2023-03-03T14:34:16.335Z,0.99
2023-03-03T14:39:39.080Z,1.00
2023-03-03T14:45:00.717Z,0.96
2023-03-03T14:50:36.801Z,0.97
2023-03-03T14:55:41.279Z,1.00
2023-03-03T15:00:43.088Z,0.98
2023-03-03T15:05:52.992Z,0.90
2023-03-03T15:10:54.705Z,0.71
2023-03-03T15:15:59.162Z,0.61
2023-03-03T15:21:12.456Z,0.58
2023-03-03T15:26:35.685Z,0.54
2023-03-03T15:32:03.515Z,0.54
2023-03-03T15:37:24.753Z,0.46
2023-03-03T15:42:36.327Z,0.36
2023-03-03T15:47:56.806Z,0.38
2023-03-03T15:53:34.127Z,0.30
2023-03-03T15:59:20.007Z,0.30
2023-03-03T16:04:26.209Z,0.28
2023-03-03T16:09:39.800Z,0.32
2023-03-03T16:15:06.360Z,0.32
2023-03-03T16:20:33.458Z,0.31
2023-03-03T16:26:00.176Z,0.22
2023-03-03T16:31:13.243Z,0.15
2023-03-03T16:36:17.800Z,0.02
2023-03-03T16:41:26.880Z,-0.09
2023-03-03T16:46:33.800Z,-0.06
2023-03-03T16:51:46.687Z,-0.03
2023-03-03T16:57:19.617Z,0.04
2023-03-03T17:03:00.503Z,0.11
2023-03-03T17:08:39.445Z,0.19
2023-03-03T17:13:59.725Z,0.20
2023-03-03T17:19:28.412Z,0.16
2023-03-03T17:24:45.622Z,0.05
2023-03-03T17:29:55.334Z,0.00
2023-03-03T17:35:19.930Z,0.04
2023-03-03T17:40:33.157Z,0.07
2023-03-03T17:45:41.007Z,0.04
2023-03-03T17:51:14.148Z,0.01
2023-03-03T17:56:22.955Z,-0.06
2023-03-03T18:01:40.568Z,-0.08
2023-03-03T18:07:00.900Z,-0.07
2023-03-03T18:12:23.945Z,0.07
2023-03-03T18:17:38.006Z,0.29
2023-03-03T18:22:45.826Z,0.37
2023-03-03T18:28:07.490Z,0.25
2023-03-03T18:33:13.005Z,0.23
2023-03-03T18:38:17.985Z,0.25
2023-03-03T18:43:45.069Z,0.42
2023-03-03T18:48:50.500Z,0.58
2023-03-03T18:54:07.509Z,0.70
2023-03-03T18:59:09.774Z,0.72
2023-03-03T19:04:26.323Z,0.67
2023-03-03T19:09:52.504Z,0.70
2023-03-03T19:14:54.401Z,0.70
2023-03-03T19:20:18.169Z,0.63
2023-03-03T19:25:28.625Z,0.56
2023-03-03T19:30:39.853Z,0.52
2023-03-03T19:36:03.124Z,0.53
2023-03-03T19:41:37.774Z,0.43
2023-03-03T19:47:13.205Z,0.47
2023-03-03T19:52:29.913Z,0.40
2023-03-03T19:58:05.938Z,0.33
2023-03-03T20:03:48.003Z,0.22
2023-03-03T20:09:04.733Z,0.16
2023-03-03T20:14:21.622Z,0.12
2023-03-03T20:19:42.237Z,0.10
2023-03-03T20:25:06.030Z,0.05
2023-03-03T20:30:38.275Z,0.06
2023-03-03T20:35:51.367Z,0.08
2023-03-03T20:41:23.845Z,0.16
2023-03-03T20:46:47.643Z,0.22
2023-03-03T20:52:01.757Z,0.16
2023-03-03T20:57:23.131Z,0.09
2023-03-03T21:02:38.648Z,0.10
2023-03-03T21:08:03.673Z,0.10
2023-03-03T21:13:47.636Z,0.07
2023-03-03T21:18:57.613Z,0.14
2023-03-03T21:23:59.410Z,0.29
2023-03-03T21:29:03.510Z,0.37
2023-03-03T21:34:18.314Z,0.46
2023-03-03T21:39:31.312Z,0.50
2023-03-03T21:44:32.992Z,0.40
2023-03-03T21:49:34.597Z,0.26
2023-03-03T21:54:36.486Z,0.22
2023-03-03T21:59:38.872Z,0.33
2023-03-03T22:04:41.385Z,0.33
2023-03-03T22:09:43.670Z,0.28
2023-03-03T22:14:51.737Z,0.29
2023-03-03T22:19:55.625Z,0.35
2023-03-03T22:24:57.346Z,0.47
2023-03-03T22:29:59.038Z,0.61
2023-03-03T22:35:00.885Z,0.72
2023-03-03T22:40:02.728Z,0.77
2023-03-03T22:45:24.475Z,0.68
2023-03-03T22:50:28.220Z,0.65
2023-03-03T22:55:36.948Z,0.65
2023-03-03T23:00:39.291Z,0.67
2023-03-03T23:05:41.971Z,0.73
2023-03-03T23:10:43.741Z,0.74
2023-03-03T23:15:45.522Z,0.68
2023-03-03T23:20:47.368Z,0.52
2023-03-03T23:25:49.397Z,0.45
2023-03-03T23:30:52.320Z,0.40
2023-03-03T23:35:54.267Z,0.27
2023-03-03T23:40:56.010Z,0.18
2023-03-03T23:45:57.705Z,0.18
2023-03-03T23:51:01.389Z,0.23
2023-03-03T23:56:03.367Z,0.23
